Time;durP1;ratioP1;P1;durP2;ratioP2;P2;SDS_P1;SDS_P2;PMS_P1;PMS_P2;Temp;Humidity;BMP_temperature;BMP_pressure;BME280_temperature;BME280_humidity;BME280_pressure;Samples;Min_cycle;Max_cycle;Signal;HPM_P1;HPM_P2
2022/03/23 00:01:48;;;;;;;16.57;9.03;;;5.70;99.90;;;;;;5018978;28;20200;-70
2022/03/23 00:04:15;;;;;;;17.87;8.87;;;5.50;99.90;;;;;;5027663;28;20285;-73
2022/03/23 00:06:44;;;;;;;15.23;9.00;;;5.60;99.90;;;;;;5018895;28;20223;-72
2022/03/23 00:09:12;;;;;;;19.57;9.40;;;5.50;99.90;;;;;;5027869;28;20276;-71
2022/03/23 00:11:40;;;;;;;20.67;9.70;;;5.40;99.90;;;;;;5022015;28;20203;-70
2022/03/23 00:14:09;;;;;;;17.53;9.30;;;5.50;99.90;;;;;;5024971;28;20211;-70
2022/03/23 00:16:37;;;;;;;19.77;9.90;;;5.60;99.90;;;;;;5013727;28;20198;-73
2022/03/23 00:19:06;;;;;;;16.20;9.10;;;5.40;99.90;;;;;;5013448;28;20291;-73
2022/03/23 00:21:33;;;;;;;17.70;9.77;;;5.40;99.90;;;;;;5036456;28;20200;-72
2022/03/23 00:24:00;;;;;;;19.37;10.90;;;5.40;99.90;;;;;;5022089;28;20346;-70
2022/03/23 00:26:27;;;;;;;17.60;9.90;;;5.50;99.90;;;;;;5020832;28;20276;-70
2022/03/23 00:28:54;;;;;;;15.77;10.27;;;5.60;99.90;;;;;;5025612;28;20219;-70
2022/03/23 00:31:22;;;;;;;19.93;9.57;;;5.50;99.90;;;;;;5026003;28;20194;-73
2022/03/23 00:33:49;;;;;;;18.33;10.57;;;5.40;99.90;;;;;;5017305;28;20694;-70
2022/03/23 00:36:16;;;;;;;21.33;11.00;;;5.50;99.90;;;;;;5025301;28;20665;-69
2022/03/23 00:38:44;;;;;;;17.97;10.37;;;5.60;99.90;;;;;;5018308;28;20225;-71
2022/03/23 00:41:11;;;;;;;19.93;10.33;;;5.60;99.90;;;;;;5015248;28;20203;-70
2022/03/23 00:43:38;;;;;;;17.87;9.80;;;5.60;99.90;;;;;;5014797;28;20293;-72
2022/03/23 00:46:04;;;;;;;16.37;9.20;;;5.60;99.90;;;;;;5017801;28;20198;-71
2022/03/23 00:48:32;;;;;;;19.67;9.90;;;5.50;99.90;;;;;;5024501;28;20214;-71
2022/03/23 00:50:59;;;;;;;17.93;9.37;;;5.40;99.90;;;;;;5024667;28;20207;-71
2022/03/23 00:53:25;;;;;;;18.53;9.93;;;5.40;99.90;;;;;;5017482;28;20202;-71
2022/03/23 00:55:52;;;;;;;17.13;9.47;;;5.30;99.90;;;;;;5018000;28;20207;-70
2022/03/23 00:58:19;;;;;;;16.30;10.10;;;5.20;99.90;;;;;;5015267;28;20231;-71
2022/03/23 01:00:45;;;;;;;17.50;9.57;;;5.30;99.90;;;;;;5024060;28;20201;-72
2022/03/23 01:03:12;;;;;;;15.83;9.47;;;5.30;99.90;;;;;;5023968;28;20214;-72
2022/03/23 01:05:39;;;;;;;16.13;9.83;;;5.30;99.90;;;;;;5020455;28;20195;-71
2022/03/23 01:08:06;;;;;;;18.13;9.67;;;5.40;99.90;;;;;;5020497;28;20265;-71
2022/03/23 01:10:34;;;;;;;14.33;8.97;;;5.30;99.90;;;;;;5010513;28;20210;-71
2022/03/23 01:13:01;;;;;;;19.37;9.10;;;5.30;99.90;;;;;;5014925;28;20232;-71
2022/03/23 01:15:29;;;;;;;17.87;9.67;;;5.40;99.90;;;;;;5023850;28;20195;-71
2022/03/23 01:17:56;;;;;;;18.90;9.33;;;5.20;99.90;;;;;;5009587;28;20315;-71
2022/03/23 01:20:22;;;;;;;16.93;9.73;;;5.10;99.90;;;;;;5020327;28;20192;-71
2022/03/23 01:22:50;;;;;;;19.27;9.90;;;5.10;99.90;;;;;;5021609;28;20226;-74
2022/03/23 01:25:18;;;;;;;16.30;9.07;;;5.10;99.90;;;;;;5020839;28;20203;-72
2022/03/23 01:27:46;;;;;;;17.07;8.80;;;5.20;99.90;;;;;;5019613;28;20212;-73
2022/03/23 01:30:13;;;;;;;15.93;9.50;;;5.20;99.90;;;;;;5027016;28;20611;-73
2022/03/23 01:32:42;;;;;;;18.60;9.50;;;5.00;99.90;;;;;;5027317;28;20195;-73
2022/03/23 01:35:10;;;;;;;16.53;9.47;;;4.90;99.90;;;;;;5016071;28;20204;-72
2022/03/23 01:37:37;;;;;;;15.67;9.37;;;4.80;99.90;;;;;;5019131;28;20760;-71
2022/03/23 01:40:06;;;;;;;17.30;9.97;;;4.70;99.90;;;;;;5022882;28;20199;-71
2022/03/23 01:42:32;;;;;;;15.23;9.80;;;4.70;99.90;;;;;;5015170;28;20208;-75
2022/03/23 01:44:59;;;;;;;17.87;9.67;;;4.70;99.90;;;;;;5016343;28;20638;-70
2022/03/23 01:47:26;;;;;;;16.77;9.37;;;4.70;99.90;;;;;;5024246;28;20672;-73
2022/03/23 01:49:55;;;;;;;19.43;10.03;;;4.50;99.90;;;;;;5019895;28;21149;-71
2022/03/23 01:52:25;;;;;;;17.83;9.80;;;4.50;99.90;;;;;;5023108;28;20691;-74
2022/03/23 01:54:52;;;;;;;17.43;9.30;;;4.50;99.90;;;;;;5014401;28;20253;-71
2022/03/23 01:57:20;;;;;;;19.60;10.00;;;4.60;99.90;;;;;;5016905;28;20703;-71
2022/03/23 01:59:47;;;;;;;14.27;8.90;;;4.60;99.90;;;;;;5010279;28;20213;-74
2022/03/23 02:02:14;;;;;;;17.70;9.57;;;4.60;99.90;;;;;;5024034;28;20207;-71
2022/03/23 02:04:41;;;;;;;19.03;9.70;;;4.50;99.90;;;;;;5015160;28;20676;-73
2022/03/23 02:07:08;;;;;;;16.90;9.53;;;4.60;99.90;;;;;;5010841;28;20204;-70
2022/03/23 02:09:34;;;;;;;17.07;9.07;;;4.60;99.90;;;;;;5019700;28;20222;-72
2022/03/23 02:12:03;;;;;;;17.77;9.53;;;4.60;99.90;;;;;;5019149;28;20195;-74
2022/03/23 02:14:30;;;;;;;17.03;9.90;;;4.60;99.90;;;;;;5019425;28;20204;-71
2022/03/23 02:16:56;;;;;;;16.70;9.73;;;4.60;99.90;;;;;;5021114;28;20192;-70
2022/03/23 02:19:23;;;;;;;16.70;9.27;;;4.60;99.90;;;;;;5021781;28;20231;-70
2022/03/23 02:21:53;;;;;;;14.93;8.50;;;4.50;99.90;;;;;;5020364;28;20187;-71
2022/03/23 02:24:26;;;;;;;18.40;9.73;;;4.30;99.90;;;;;;5022442;28;20396;-70
2022/03/23 02:26:53;;;;;;;17.40;9.90;;;4.30;99.90;;;;;;5021886;28;20195;-71
2022/03/23 02:29:22;;;;;;;20.87;9.77;;;4.30;99.90;;;;;;5022359;28;20707;-70
2022/03/23 02:31:49;;;;;;;17.90;9.73;;;4.30;99.90;;;;;;5021784;28;20199;-74
2022/03/23 02:34:16;;;;;;;21.27;10.73;;;4.40;99.90;;;;;;5024147;28;20679;-70
2022/03/23 02:36:44;;;;;;;17.03;9.47;;;4.40;99.90;;;;;;5025046;28;20259;-71
2022/03/23 02:39:11;;;;;;;17.77;10.13;;;4.30;99.90;;;;;;5025099;28;20230;-71
2022/03/23 02:41:39;;;;;;;15.77;9.80;;;4.20;99.90;;;;;;5021821;28;20221;-72
2022/03/23 02:44:06;;;;;;;17.37;9.27;;;4.10;99.90;;;;;;5023795;28;20197;-74
2022/03/23 02:46:36;;;;;;;17.23;9.30;;;4.00;99.90;;;;;;5021634;28;20625;-73
2022/03/23 02:49:03;;;;;;;16.43;9.73;;;4.00;99.90;;;;;;5025491;28;20215;-73
2022/03/23 02:51:30;;;;;;;16.43;9.37;;;4.10;99.90;;;;;;5023814;28;20198;-72
2022/03/23 03:02:56;;;;;;;17.13;9.20;;;3.80;99.90;;;;;;5018663;28;20243;-70
2022/03/23 03:05:23;;;;;;;19.23;10.23;;;3.80;99.90;;;;;;5020860;28;20206;-72
2022/03/23 03:10:35;;;;;;;20.67;11.07;;;3.80;99.90;;;;;;5017923;28;20195;-73
2022/03/23 03:13:02;;;;;;;18.63;10.60;;;4.00;99.90;;;;;;5015703;28;20253;-72
2022/03/23 03:15:28;;;;;;;19.40;9.90;;;4.00;99.90;;;;;;5015223;28;20622;-70
2022/03/23 03:17:58;;;;;;;19.27;9.60;;;4.00;99.90;;;;;;5019201;28;20230;-74
2022/03/23 03:20:26;;;;;;;18.10;10.23;;;3.90;99.90;;;;;;5022414;28;20199;-70
2022/03/23 03:22:53;;;;;;;20.30;11.03;;;3.90;99.90;;;;;;5017130;28;20199;-70
2022/03/23 03:25:22;;;;;;;17.77;10.97;;;4.00;99.90;;;;;;5018103;28;20769;-71
2022/03/23 03:27:49;;;;;;;20.07;10.93;;;4.00;99.90;;;;;;5015490;28;20748;-71
2022/03/23 03:30:17;;;;;;;19.70;10.67;;;4.10;99.90;;;;;;5016898;28;20198;-72
2022/03/23 03:32:45;;;;;;;22.90;10.70;;;4.00;99.90;;;;;;5016862;28;20197;-71
2022/03/23 03:35:13;;;;;;;19.87;10.50;;;4.00;99.90;;;;;;5015780;28;20254;-71
2022/03/23 03:37:41;;;;;;;18.70;11.17;;;3.90;99.90;;;;;;5019585;28;20227;-73
2022/03/23 03:40:09;;;;;;;19.87;10.93;;;4.00;99.90;;;;;;5018117;28;20671;-71
2022/03/23 03:42:36;;;;;;;25.70;10.77;;;4.00;99.90;;;;;;5035233;28;20199;-71
2022/03/23 03:45:08;;;;;;;21.97;11.30;;;3.90;99.90;;;;;;5014249;28;20265;-70
2022/03/23 03:47:34;;;;;;;21.27;11.27;;;3.90;99.90;;;;;;5017599;28;20207;-71
2022/03/23 03:50:01;;;;;;;19.83;10.87;;;3.90;99.90;;;;;;5018205;28;20579;-72
2022/03/23 03:52:28;;;;;;;18.70;10.53;;;3.90;99.90;;;;;;5016639;28;20664;-71
2022/03/23 03:54:55;;;;;;;23.37;11.97;;;3.80;99.90;;;;;;5017822;28;20211;-71
2022/03/23 03:57:21;;;;;;;21.97;11.07;;;3.80;99.90;;;;;;5018578;28;20207;-71
2022/03/23 03:59:48;;;;;;;20.07;10.97;;;3.70;99.90;;;;;;5016186;28;20227;-70
2022/03/23 04:02:15;;;;;;;20.37;10.90;;;3.70;99.90;;;;;;5017668;28;20565;-70
2022/03/23 04:04:42;;;;;;;21.27;11.60;;;3.60;99.90;;;;;;5018445;28;20620;-71
2022/03/23 04:07:08;;;;;;;25.30;11.87;;;3.60;99.90;;;;;;5015149;28;20192;-73
2022/03/23 04:09:35;;;;;;;21.33;11.50;;;3.60;99.90;;;;;;5021587;28;20217;-71
2022/03/23 04:12:02;;;;;;;24.13;12.00;;;3.70;99.90;;;;;;5018830;28;20218;-72
2022/03/23 04:14:29;;;;;;;22.17;11.40;;;3.80;99.90;;;;;;5016017;28;20690;-71
2022/03/23 04:16:56;;;;;;;17.57;10.67;;;3.80;99.90;;;;;;5013683;28;20568;-71
2022/03/23 04:19:22;;;;;;;22.40;11.00;;;3.80;99.90;;;;;;5013982;28;20310;-71
2022/03/23 04:21:49;;;;;;;23.87;11.87;;;3.80;99.90;;;;;;5017473;28;20261;-72
2022/03/23 04:24:16;;;;;;;23.13;11.27;;;3.70;99.90;;;;;;5019146;28;20198;-71
2022/03/23 04:26:45;;;;;;;22.67;11.57;;;3.80;99.90;;;;;;5017577;28;20206;-71
2022/03/23 04:29:12;;;;;;;22.43;11.40;;;3.70;99.90;;;;;;5021479;28;20216;-71
2022/03/23 04:31:39;;;;;;;21.03;10.97;;;3.60;99.90;;;;;;5014590;28;20669;-71
2022/03/23 04:34:06;;;;;;;22.13;11.57;;;3.50;99.90;;;;;;5016738;28;20207;-72
2022/03/23 04:36:33;;;;;;;23.17;11.67;;;3.50;99.90;;;;;;5015334;28;20584;-70
2022/03/23 04:38:59;;;;;;;20.00;12.10;;;3.50;99.90;;;;;;5012480;28;20219;-71
2022/03/23 04:41:26;;;;;;;19.57;11.33;;;3.60;99.90;;;;;;5016588;28;20203;-72
2022/03/23 04:43:53;;;;;;;20.10;11.77;;;3.60;99.90;;;;;;5017072;28;20198;-70
2022/03/23 04:46:19;;;;;;;20.40;11.23;;;3.60;99.90;;;;;;5015042;28;20280;-73
2022/03/23 04:48:47;;;;;;;20.40;11.63;;;3.60;99.90;;;;;;5014648;28;20245;-73
2022/03/23 04:51:13;;;;;;;22.33;11.20;;;3.50;99.90;;;;;;5014691;28;20267;-70
2022/03/23 04:53:40;;;;;;;23.40;11.50;;;3.40;99.90;;;;;;5016614;28;20606;-71
2022/03/23 04:56:07;;;;;;;19.70;11.00;;;3.40;99.90;;;;;;5017893;28;20209;-72
2022/03/23 04:58:34;;;;;;;21.60;11.07;;;3.40;99.90;;;;;;5016346;28;20233;-73
2022/03/23 05:01:01;;;;;;;20.43;10.77;;;3.40;99.90;;;;;;5018432;28;20200;-70
2022/03/23 05:03:29;;;;;;;21.10;11.37;;;3.40;99.90;;;;;;5017250;28;20210;-72
2022/03/23 05:05:55;;;;;;;24.73;11.53;;;3.30;99.90;;;;;;5015880;28;20207;-69
2022/03/23 05:08:22;;;;;;;26.93;11.90;;;3.30;99.90;;;;;;5014308;28;20239;-71
2022/03/23 05:10:49;;;;;;;21.67;12.00;;;3.30;99.90;;;;;;5016698;28;20198;-69
2022/03/23 05:13:15;;;;;;;23.73;11.80;;;3.10;99.90;;;;;;5015024;28;20200;-69
2022/03/23 05:15:42;;;;;;;20.97;11.37;;;3.10;99.90;;;;;;5017413;28;20206;-69
2022/03/23 05:18:09;;;;;;;19.47;11.33;;;3.20;99.90;;;;;;5015410;28;20218;-70
2022/03/23 05:20:36;;;;;;;24.00;10.57;;;2.90;99.90;;;;;;5011821;28;20194;-69
2022/03/23 05:23:02;;;;;;;20.27;11.30;;;2.90;99.90;;;;;;5015764;28;20233;-69
2022/03/23 05:25:30;;;;;;;21.10;11.40;;;3.00;99.90;;;;;;5017512;28;20685;-70
2022/03/23 05:27:57;;;;;;;21.33;11.50;;;3.10;99.90;;;;;;5012944;28;20702;-69
2022/03/23 05:30:23;;;;;;;20.73;11.37;;;3.10;99.90;;;;;;5014103;28;20711;-69
2022/03/23 05:32:50;;;;;;;20.30;11.43;;;3.20;99.90;;;;;;5014746;28;20205;-70
2022/03/23 05:35:17;;;;;;;21.43;11.83;;;3.20;99.90;;;;;;5012510;28;20196;-72
2022/03/23 05:37:44;;;;;;;21.03;11.70;;;3.20;99.90;;;;;;5013098;28;20217;-69
2022/03/23 05:40:11;;;;;;;23.47;12.30;;;3.30;99.90;;;;;;5019031;28;20215;-70
2022/03/23 05:42:38;;;;;;;23.87;11.63;;;3.20;99.90;;;;;;5015117;28;20242;-69
2022/03/23 05:45:06;;;;;;;20.47;11.23;;;3.20;99.90;;;;;;5017870;28;20570;-68
2022/03/23 05:47:34;;;;;;;21.50;11.03;;;3.30;99.90;;;;;;5016458;28;20200;-69
2022/03/23 05:50:01;;;;;;;21.83;11.87;;;3.20;99.90;;;;;;5014607;28;20201;-69
2022/03/23 05:52:27;;;;;;;24.50;12.33;;;3.30;99.90;;;;;;5011488;28;20208;-72
2022/03/23 05:54:54;;;;;;;19.73;11.63;;;3.30;99.90;;;;;;5013925;28;20205;-72
2022/03/23 05:57:21;;;;;;;25.77;12.57;;;3.30;99.90;;;;;;5019710;28;20209;-73
2022/03/23 05:59:47;;;;;;;20.77;11.33;;;3.30;99.90;;;;;;5022960;28;20226;-70
2022/03/23 06:02:14;;;;;;;21.37;10.83;;;3.30;99.90;;;;;;5022158;28;20232;-71
2022/03/23 06:04:41;;;;;;;22.13;11.33;;;3.40;99.90;;;;;;5021405;28;20202;-71
2022/03/23 06:07:07;;;;;;;21.03;11.70;;;3.40;99.90;;;;;;5020393;28;20202;-71
2022/03/23 06:09:34;;;;;;;23.33;11.77;;;3.50;99.90;;;;;;5022093;28;20705;-72
2022/03/23 06:12:04;;;;;;;23.17;11.70;;;3.50;99.90;;;;;;5024112;28;20207;-71
2022/03/23 06:14:32;;;;;;;19.40;11.73;;;3.60;99.90;;;;;;5026007;28;20198;-70
2022/03/23 06:16:58;;;;;;;24.93;11.27;;;3.70;99.90;;;;;;5018975;28;20211;-72
2022/03/23 06:19:25;;;;;;;20.67;11.40;;;3.90;99.90;;;;;;5024868;28;20230;-70
2022/03/23 06:21:52;;;;;;;20.43;11.63;;;3.90;99.90;;;;;;5025128;28;20667;-72
2022/03/23 06:24:18;;;;;;;20.80;12.03;;;3.90;99.90;;;;;;5027197;28;20196;-71
2022/03/23 06:26:45;;;;;;;20.13;11.53;;;4.00;99.90;;;;;;5024972;28;20250;-73
2022/03/23 06:29:12;;;;;;;24.33;11.40;;;4.00;99.90;;;;;;5022805;28;20225;-71
2022/03/23 06:31:38;;;;;;;23.60;12.90;;;3.90;99.90;;;;;;5023431;28;20200;-72
2022/03/23 06:34:05;;;;;;;20.57;12.37;;;3.90;99.90;;;;;;5013407;28;20559;-70
2022/03/23 06:36:32;;;;;;;24.77;12.70;;;4.10;99.90;;;;;;5019787;28;20253;-72
2022/03/23 06:38:58;;;;;;;21.97;12.33;;;4.20;99.90;;;;;;5024374;28;20714;-70
2022/03/23 06:41:25;;;;;;;24.47;12.93;;;4.30;99.90;;;;;;5022802;28;20277;-71
2022/03/23 06:43:52;;;;;;;23.37;13.50;;;4.40;99.90;;;;;;5021961;28;20291;-72
2022/03/23 06:46:19;;;;;;;21.23;12.87;;;4.50;99.90;;;;;;5040050;28;20206;-73
2022/03/23 06:48:47;;;;;;;27.73;14.10;;;4.50;99.90;;;;;;5032726;28;20269;-71
2022/03/23 06:51:14;;;;;;;26.67;13.70;;;4.70;99.90;;;;;;5020674;28;20824;-73
2022/03/23 06:53:41;;;;;;;26.27;14.83;;;4.70;99.90;;;;;;5020892;28;20211;-77
2022/03/23 06:56:09;;;;;;;27.80;14.97;;;4.80;99.90;;;;;;5028481;28;20202;-75
2022/03/23 06:58:36;;;;;;;24.90;13.40;;;4.80;99.90;;;;;;5030331;28;20228;-71
2022/03/23 07:01:03;;;;;;;27.17;15.03;;;4.90;99.90;;;;;;5028901;28;20206;-73
2022/03/23 07:03:30;;;;;;;24.17;15.10;;;5.00;99.90;;;;;;5014044;28;20511;-71
2022/03/23 07:05:57;;;;;;;27.17;14.27;;;5.20;99.90;;;;;;5022894;28;20211;-73
2022/03/23 07:11:09;;;;;;;26.07;14.67;;;5.40;99.90;;;;;;5037606;28;20195;-74
2022/03/23 07:13:36;;;;;;;28.13;14.93;;;5.50;99.90;;;;;;5023310;28;20206;-71
2022/03/23 07:16:03;;;;;;;25.70;14.53;;;5.60;99.90;;;;;;5020523;28;20725;-73
2022/03/23 07:18:30;;;;;;;27.20;14.33;;;5.50;99.90;;;;;;5020984;28;20226;-75
2022/03/23 07:20:57;;;;;;;26.13;14.70;;;5.60;99.90;;;;;;5027009;28;20188;-74
2022/03/23 07:23:23;;;;;;;28.53;13.90;;;5.80;99.90;;;;;;5021556;28;20200;-72
2022/03/23 07:25:50;;;;;;;28.87;14.83;;;5.90;99.90;;;;;;5017972;28;20189;-78
2022/03/23 07:28:17;;;;;;;26.37;14.27;;;5.80;99.90;;;;;;5024431;28;20219;-72
2022/03/23 07:30:44;;;;;;;25.27;14.17;;;6.00;99.90;;;;;;5020984;28;20204;-69
2022/03/23 07:33:11;;;;;;;25.07;14.73;;;6.20;99.90;;;;;;5026318;28;20597;-71
2022/03/23 07:35:37;;;;;;;22.63;13.53;;;6.30;99.90;;;;;;5017329;28;20206;-70
2022/03/23 07:38:04;;;;;;;25.77;14.63;;;6.50;99.90;;;;;;5024257;28;20218;-71
2022/03/23 07:40:30;;;;;;;25.03;14.90;;;6.60;99.90;;;;;;5031163;28;20226;-72
2022/03/23 07:42:57;;;;;;;28.30;15.30;;;6.70;99.90;;;;;;5041624;28;20205;-73
2022/03/23 07:45:24;;;;;;;29.23;15.10;;;6.80;99.90;;;;;;5022271;28;20187;-73
2022/03/23 07:47:51;;;;;;;27.83;15.60;;;6.90;99.90;;;;;;5031184;28;20215;-71
2022/03/23 07:50:17;;;;;;;28.10;15.67;;;7.00;99.90;;;;;;5031791;28;20261;-72
2022/03/23 07:52:44;;;;;;;26.17;14.27;;;7.20;99.90;;;;;;5027068;28;20203;-70
2022/03/23 07:55:11;;;;;;;27.40;15.50;;;7.30;99.90;;;;;;5019198;28;20247;-70
2022/03/23 07:57:38;;;;;;;30.50;15.93;;;7.40;99.90;;;;;;5030961;28;20200;-71
2022/03/23 08:00:05;;;;;;;25.80;14.53;;;7.60;99.90;;;;;;5031180;28;20588;-70
2022/03/23 08:02:31;;;;;;;31.27;15.23;;;7.60;99.90;;;;;;5015423;28;20200;-73
2022/03/23 08:04:59;;;;;;;29.43;15.33;;;7.60;99.90;;;;;;5021985;28;20214;-73
2022/03/23 08:07:25;;;;;;;28.10;14.33;;;7.60;99.90;;;;;;5034518;28;20200;-74
2022/03/23 08:09:52;;;;;;;22.53;13.87;;;7.60;99.90;;;;;;5016826;28;21121;-71
2022/03/23 08:12:19;;;;;;;24.23;13.50;;;7.70;99.90;;;;;;5025629;28;20206;-75
2022/03/23 08:14:46;;;;;;;24.10;14.50;;;7.80;99.90;;;;;;5020860;28;20197;-69
2022/03/23 08:17:18;;;;;;;24.77;14.07;;;7.80;99.90;;;;;;5023795;28;20245;-74
2022/03/23 08:20:32;;;;;;;23.60;13.70;;;7.90;99.90;;;;;;5025327;28;20232;-71
2022/03/23 08:22:31;;;;;;;26.13;13.53;;;8.00;99.90;;;;;;5019452;28;20190;-72
2022/03/23 08:24:58;;;;;;;28.77;14.00;;;8.10;99.90;;;;;;5022143;28;20226;-72
2022/03/23 08:27:25;;;;;;;24.33;13.93;;;8.10;99.90;;;;;;5017961;28;20192;-76
2022/03/23 08:29:52;;;;;;;22.27;13.57;;;8.20;99.90;;;;;;5018787;28;20200;-71
2022/03/23 08:32:18;;;;;;;24.50;13.70;;;8.40;99.90;;;;;;5011826;28;20652;-73
2022/03/23 08:34:45;;;;;;;27.13;14.30;;;8.70;99.90;;;;;;5018664;28;20223;-73
2022/03/23 08:37:12;;;;;;;23.27;13.10;;;8.80;99.90;;;;;;5019057;28;20210;-73
2022/03/23 08:39:38;;;;;;;26.47;12.53;;;9.00;99.90;;;;;;5026529;28;20701;-73
2022/03/23 08:42:06;;;;;;;22.03;13.00;;;9.10;99.90;;;;;;5029260;28;20200;-74
2022/03/23 08:44:32;;;;;;;25.97;14.43;;;9.30;99.90;;;;;;5027155;28;20196;-73
2022/03/23 08:47:00;;;;;;;27.50;13.27;;;9.50;99.90;;;;;;5016321;28;20194;-76
2022/03/23 08:49:26;;;;;;;22.37;13.13;;;9.70;99.90;;;;;;5018202;28;20217;-75
2022/03/23 08:51:53;;;;;;;25.47;13.30;;;9.80;99.90;;;;;;5022008;28;20736;-73
2022/03/23 08:54:24;;;;;;;22.80;12.93;;;9.80;99.90;;;;;;5023020;28;20207;-73
2022/03/23 08:56:51;;;;;;;25.13;13.90;;;9.90;99.90;;;;;;5014562;28;20211;-74
2022/03/23 08:59:17;;;;;;;27.53;14.00;;;10.00;99.90;;;;;;5018180;28;20226;-72
2022/03/23 09:01:44;;;;;;;25.67;14.70;;;10.30;99.90;;;;;;5018242;28;20218;-71
2022/03/23 09:04:11;;;;;;;24.80;14.27;;;10.60;99.90;;;;;;5024362;28;20199;-73
2022/03/23 09:06:37;;;;;;;24.43;14.17;;;10.90;99.90;;;;;;5021522;28;20202;-73
2022/03/23 09:09:04;;;;;;;30.53;14.90;;;11.10;99.90;;;;;;5023227;28;20241;-75
2022/03/23 09:11:32;;;;;;;26.97;15.40;;;11.40;99.90;;;;;;5021345;28;20694;-72
2022/03/23 09:13:59;;;;;;;22.37;13.73;;;11.60;99.90;;;;;;5022309;28;20675;-74
2022/03/23 09:16:25;;;;;;;26.67;14.83;;;11.70;99.90;;;;;;5023389;28;20195;-82
2022/03/23 09:18:53;;;;;;;24.47;14.33;;;11.90;99.90;;;;;;5022989;28;20219;-82
2022/03/23 09:21:21;;;;;;;25.37;13.97;;;12.20;99.90;;;;;;5023956;28;20233;-84
2022/03/23 09:23:48;;;;;;;23.40;14.83;;;12.30;99.90;;;;;;5015591;28;20387;-81
2022/03/23 09:26:15;;;;;;;25.43;14.77;;;12.60;99.90;;;;;;5016810;28;20191;-77
2022/03/23 09:28:41;;;;;;;26.00;15.57;;;12.60;99.90;;;;;;5020779;28;20210;-76
2022/03/23 09:31:08;;;;;;;31.30;15.80;;;12.90;99.90;;;;;;5022650;28;20249;-76
2022/03/23 09:33:35;;;;;;;33.07;16.00;;;13.10;99.90;;;;;;5016657;28;20276;-74
2022/03/23 09:36:02;;;;;;;35.47;16.53;;;13.40;99.90;;;;;;5020647;28;20208;-72
2022/03/23 09:38:29;;;;;;;32.00;16.43;;;13.50;99.90;;;;;;5020145;28;20780;-74
2022/03/23 09:40:57;;;;;;;28.60;16.47;;;13.70;99.90;;;;;;5027133;28;20223;-73
2022/03/23 09:43:25;;;;;;;25.97;15.43;;;13.90;99.90;;;;;;5025908;28;20200;-73
2022/03/23 09:45:52;;;;;;;26.93;16.53;;;14.10;99.90;;;;;;5029389;28;20246;-70
2022/03/23 09:48:21;;;;;;;32.70;15.73;;;14.20;99.90;;;;;;5027132;28;20243;-74
2022/03/23 09:50:53;;;;;;;28.07;15.87;;;14.40;99.90;;;;;;5026566;28;20658;-72
2022/03/23 09:53:23;;;;;;;28.97;16.30;;;14.40;99.90;;;;;;5019920;28;20224;-75
2022/03/23 09:55:54;;;;;;;25.77;15.27;;;14.40;99.90;;;;;;5021003;28;20204;-71
2022/03/23 09:58:20;;;;;;;29.53;16.77;;;14.50;99.90;;;;;;5037680;28;20230;-72
2022/03/23 10:00:48;;;;;;;29.00;16.10;;;14.60;99.90;;;;;;5021447;28;20555;-73
2022/03/23 10:03:54;;;;;;;29.07;16.50;;;14.80;99.90;;;;;;5016348;28;20239;-78
2022/03/23 10:06:39;;;;;;;27.97;15.30;;;15.00;99.90;;;;;;5023409;28;20215;-74
2022/03/23 10:09:29;;;;;;;25.43;15.40;;;14.80;99.90;;;;;;5015453;28;20311;-73
2022/03/23 10:12:44;;;;;;;27.23;15.47;;;15.00;99.90;;;;;;5012382;28;20223;-73
2022/03/23 10:15:48;;;;;;;34.93;16.70;;;15.20;99.90;;;;;;5024640;28;20204;-70
2022/03/23 10:18:21;;;;;;;29.20;16.10;;;15.50;99.90;;;;;;5021979;28;20305;-70
2022/03/23 10:20:48;;;;;;;27.03;16.10;;;15.70;99.90;;;;;;5021471;28;20291;-75
2022/03/23 10:23:22;;;;;;;28.83;15.83;;;15.80;99.90;;;;;;5029177;28;20192;-72
2022/03/23 10:25:50;;;;;;;29.27;15.60;;;16.00;99.90;;;;;;5017888;28;20196;-78
2022/03/23 10:28:18;;;;;;;28.73;14.53;;;16.00;99.90;;;;;;5020891;28;20235;-72
2022/03/23 10:30:46;;;;;;;24.87;14.77;;;16.20;99.90;;;;;;5025509;28;20196;-72
2022/03/23 10:33:24;;;;;;;28.23;15.07;;;16.20;99.60;;;;;;5025772;28;20205;-76
2022/03/23 10:35:52;;;;;;;27.53;16.53;;;16.10;99.90;;;;;;5021190;28;20287;-72
2022/03/23 10:38:21;;;;;;;26.60;16.23;;;15.80;99.90;;;;;;5018650;28;20602;-72
2022/03/23 10:40:50;;;;;;;31.63;16.73;;;15.80;99.90;;;;;;5017552;28;20219;-72
2022/03/23 10:43:23;;;;;;;31.50;16.97;;;16.00;99.90;;;;;;5021921;28;20674;-72
2022/03/23 10:45:50;;;;;;;29.80;16.17;;;16.20;99.90;;;;;;5020853;28;20184;-74
2022/03/23 10:48:18;;;;;;;31.57;17.70;;;16.50;99.60;;;;;;5027623;28;20211;-70
2022/03/23 10:50:59;;;;;;;34.37;17.20;;;16.70;99.60;;;;;;5022162;28;20253;-74
2022/03/23 10:53:44;;;;;;;32.03;17.77;;;16.90;99.70;;;;;;5030701;28;20200;-71
2022/03/23 10:56:11;;;;;;;34.20;17.43;;;17.10;99.20;;;;;;5030778;28;20195;-72
2022/03/23 10:58:40;;;;;;;27.30;15.87;;;17.20;99.10;;;;;;5032413;28;20226;-73
2022/03/23 11:01:09;;;;;;;23.63;15.47;;;17.30;97.50;;;;;;5027602;28;20270;-73
2022/03/23 11:03:43;;;;;;;26.93;16.07;;;17.50;97.40;;;;;;5021704;28;20227;-71
2022/03/23 11:06:16;;;;;;;28.90;16.97;;;17.60;97.60;;;;;;5026579;28;20195;-74
2022/03/23 11:08:47;;;;;;;27.07;15.73;;;17.60;97.20;;;;;;5033201;28;20263;-72
2022/03/23 11:16:39;;;;;;;29.83;15.97;;;17.90;96.30;;;;;;5016866;28;20196;-71
2022/03/23 11:19:12;;;;;;;29.10;16.30;;;18.00;96.10;;;;;;5020440;28;20220;-71
2022/03/23 11:21:57;;;;;;;23.97;14.97;;;17.90;94.70;;;;;;5027283;28;20220;-70
2022/03/23 11:24:30;;;;;;;27.90;15.57;;;18.00;94.90;;;;;;5029556;28;20199;-72
2022/03/23 11:26:57;;;;;;;24.03;14.90;;;18.20;95.00;;;;;;5031715;28;20179;-72
2022/03/23 11:29:23;;;;;;;27.63;15.40;;;18.40;94.50;;;;;;5022141;28;20218;-76
2022/03/23 11:31:54;;;;;;;24.20;14.10;;;18.40;94.50;;;;;;5032099;28;20203;-75
2022/03/23 11:34:23;;;;;;;20.77;13.90;;;18.50;92.80;;;;;;5021805;28;20637;-72
2022/03/23 11:36:52;;;;;;;31.20;16.53;;;18.60;92.40;;;;;;5019389;28;20329;-70
2022/03/23 11:39:22;;;;;;;27.00;14.77;;;18.70;88.60;;;;;;5019832;28;20216;-74
2022/03/23 11:41:53;;;;;;;27.90;16.10;;;18.70;87.80;;;;;;5031857;28;20671;-71
2022/03/23 11:44:23;;;;;;;23.03;13.33;;;18.80;91.20;;;;;;5027346;28;20185;-70
2022/03/23 11:46:54;;;;;;;22.70;13.53;;;18.90;88.50;;;;;;5015482;28;20199;-73
2022/03/23 11:49:58;;;;;;;25.70;14.07;;;19.10;89.50;;;;;;5027638;28;20247;-71
2022/03/23 11:52:46;;;;;;;24.47;14.80;;;19.10;89.50;;;;;;5029742;28;20246;-69
2022/03/23 11:55:40;;;;;;;22.97;14.03;;;19.20;90.80;;;;;;5024427;28;20202;-71
2022/03/23 11:58:23;;;;;;;23.23;13.67;;;19.30;90.80;;;;;;5031314;28;20247;-70
2022/03/23 12:00:52;;;;;;;17.77;11.40;;;19.40;90.60;;;;;;5029187;28;20200;-74
2022/03/23 12:03:41;;;;;;;16.80;11.53;;;19.60;85.30;;;;;;5020773;28;20782;-71
2022/03/23 12:06:11;;;;;;;20.13;12.30;;;19.70;83.20;;;;;;5024887;28;20200;-71
2022/03/23 12:08:58;;;;;;;17.33;11.13;;;19.60;83.70;;;;;;5024930;28;20223;-71
2022/03/23 12:11:44;;;;;;;19.97;11.37;;;19.80;84.70;;;;;;5020899;28;20195;-72
2022/03/23 12:14:34;;;;;;;19.40;12.00;;;19.90;82.30;;;;;;5019558;28;20266;-72
2022/03/23 12:17:03;;;;;;;19.97;13.60;;;19.90;83.90;;;;;;5018584;28;20218;-73
2022/03/23 12:20:03;;;;;;;22.37;13.50;;;20.00;85.40;;;;;;5022990;28;20617;-72
2022/03/23 12:22:35;;;;;;;21.67;13.30;;;19.90;86.90;;;;;;5028193;28;20196;-72
2022/03/23 12:25:17;;;;;;;18.10;12.37;;;19.90;86.80;;;;;;5026542;28;20253;-72
2022/03/23 12:28:20;;;;;;;20.73;11.73;;;20.00;84.70;;;;;;5023314;28;20542;-72
2022/03/23 12:30:55;;;;;;;21.07;12.90;;;20.10;84.60;;;;;;5024896;28;20266;-76
2022/03/23 12:33:25;;;;;;;19.90;12.70;;;20.20;85.10;;;;;;5020316;28;20207;-74
2022/03/23 12:36:02;;;;;;;20.50;11.47;;;20.40;85.80;;;;;;5023187;28;20279;-72
2022/03/23 12:38:29;;;;;;;18.90;11.82;;;20.40;82.50;;;;;;5022808;28;20224;-72
2022/03/23 12:41:08;;;;;;;22.42;12.75;;;20.50;82.40;;;;;;5020605;28;20223;-72
2022/03/23 12:43:46;;;;;;;19.52;11.88;;;20.60;81.90;;;;;;5020805;28;20664;-71
2022/03/23 12:46:21;;;;;;;18.70;12.25;;;20.60;83.10;;;;;;5024049;28;20191;-71
2022/03/23 12:57:50;;;;;;;23.07;12.87;;;20.50;82.00;;;;;;5024377;28;20406;-69
2022/03/23 13:00:25;;;;;;;22.55;12.77;;;20.60;81.00;;;;;;5022172;28;20215;-70
2022/03/23 13:03:18;;;;;;;21.77;12.63;;;20.70;81.90;;;;;;5028187;28;20250;-74
2022/03/23 13:06:00;;;;;;;21.80;12.48;;;20.80;81.40;;;;;;5021460;28;20198;-73
2022/03/23 13:08:30;;;;;;;23.48;13.25;;;20.90;81.30;;;;;;5016755;28;20273;-72
2022/03/23 13:10:59;;;;;;;21.35;12.88;;;21.00;81.50;;;;;;5021403;28;20215;-70
2022/03/23 13:13:27;;;;;;;20.52;13.63;;;21.10;81.30;;;;;;5018505;28;20200;-71
2022/03/23 13:15:54;;;;;;;21.67;13.30;;;21.20;81.40;;;;;;5020296;28;20287;-72